sensor_id;sensor_type;location;lat;lon;timestamp;temperature;humidity
72646;DHT22;60687;53.876;10.674;2023-09-30T00:07:54;14.70;93.40
72646;DHT22;60687;53.876;10.674;2023-09-30T00:17:58;14.60;93.70
72646;DHT22;60687;53.876;10.674;2023-09-30T00:28:00;14.50;93.80
72646;DHT22;60687;53.876;10.674;2023-09-30T00:38:04;14.40;94.10
72646;DHT22;60687;53.876;10.674;2023-09-30T00:48:06;14.30;94.30
72646;DHT22;60687;53.876;10.674;2023-09-30T00:58:11;14.20;94.90
72646;DHT22;60687;53.876;10.674;2023-09-30T01:08:13;14.20;94.70
72646;DHT22;60687;53.876;10.674;2023-09-30T01:18:17;14.10;94.90
72646;DHT22;60687;53.876;10.674;2023-09-30T01:28:21;14.00;95.20
72646;DHT22;60687;53.876;10.674;2023-09-30T01:38:24;13.90;95.30
72646;DHT22;60687;53.876;10.674;2023-09-30T01:48:28;13.80;95.60
72646;DHT22;60687;53.876;10.674;2023-09-30T01:58:30;13.80;96.00
72646;DHT22;60687;53.876;10.674;2023-09-30T02:08:35;13.70;96.00
72646;DHT22;60687;53.876;10.674;2023-09-30T02:18:38;13.70;96.00
72646;DHT22;60687;53.876;10.674;2023-09-30T02:28:43;13.60;96.20
72646;DHT22;60687;53.876;10.674;2023-09-30T02:38:47;13.60;96.50
72646;DHT22;60687;53.876;10.674;2023-09-30T02:48:51;13.60;96.60
72646;DHT22;60687;53.876;10.674;2023-09-30T02:58:54;13.50;97.30
72646;DHT22;60687;53.876;10.674;2023-09-30T03:08:58;13.50;96.90
72646;DHT22;60687;53.876;10.674;2023-09-30T03:19:00;13.40;96.80
72646;DHT22;60687;53.876;10.674;2023-09-30T03:29:09;13.40;97.30
72646;DHT22;60687;53.876;10.674;2023-09-30T03:39:11;13.40;97.30
72646;DHT22;60687;53.876;10.674;2023-09-30T03:49:17;13.30;97.60
72646;DHT22;60687;53.876;10.674;2023-09-30T03:59:20;13.30;97.90
72646;DHT22;60687;53.876;10.674;2023-09-30T04:09:24;13.20;97.60
72646;DHT22;60687;53.876;10.674;2023-09-30T04:19:27;13.20;98.00
72646;DHT22;60687;53.876;10.674;2023-09-30T04:29:32;13.10;98.10
72646;DHT22;60687;53.876;10.674;2023-09-30T04:39:36;13.10;98.40
72646;DHT22;60687;53.876;10.674;2023-09-30T04:49:39;13.10;98.20
72646;DHT22;60687;53.876;10.674;2023-09-30T04:59:45;13.10;98.40
72646;DHT22;60687;53.876;10.674;2023-09-30T05:09:49;13.00;98.40
72646;DHT22;60687;53.876;10.674;2023-09-30T05:19:52;13.00;98.50
72646;DHT22;60687;53.876;10.674;2023-09-30T05:29:55;13.00;98.50
72646;DHT22;60687;53.876;10.674;2023-09-30T05:39:58;13.00;98.60
72646;DHT22;60687;53.876;10.674;2023-09-30T05:50:02;13.00;98.90
72646;DHT22;60687;53.876;10.674;2023-09-30T06:00:12;13.10;99.00
72646;DHT22;60687;53.876;10.674;2023-09-30T06:10:22;13.10;99.40
72646;DHT22;60687;53.876;10.674;2023-09-30T06:20:26;13.10;99.50
72646;DHT22;60687;53.876;10.674;2023-09-30T06:30:32;13.20;99.80
72646;DHT22;60687;53.876;10.674;2023-09-30T06:40:35;13.20;99.70
72646;DHT22;60687;53.876;10.674;2023-09-30T06:50:44;13.30;99.80
72646;DHT22;60687;53.876;10.674;2023-09-30T07:00:47;13.30;99.90
72646;DHT22;60687;53.876;10.674;2023-09-30T07:10:51;13.40;99.80
72646;DHT22;60687;53.876;10.674;2023-09-30T07:20:54;13.60;99.80
72646;DHT22;60687;53.876;10.674;2023-09-30T07:30:58;13.70;99.50
72646;DHT22;60687;53.876;10.674;2023-09-30T07:41:00;13.90;99.10
72646;DHT22;60687;53.876;10.674;2023-09-30T07:51:05;14.10;98.60
72646;DHT22;60687;53.876;10.674;2023-09-30T08:01:10;14.30;98.20
72646;DHT22;60687;53.876;10.674;2023-09-30T08:11:14;14.50;98.10
72646;DHT22;60687;53.876;10.674;2023-09-30T08:21:16;14.70;97.40
72646;DHT22;60687;53.876;10.674;2023-09-30T08:31:20;14.90;96.50
72646;DHT22;60687;53.876;10.674;2023-09-30T08:41:30;15.20;95.80
72646;DHT22;60687;53.876;10.674;2023-09-30T08:51:35;15.60;95.50
72646;DHT22;60687;53.876;10.674;2023-09-30T09:01:39;15.90;94.90
72646;DHT22;60687;53.876;10.674;2023-09-30T09:11:43;16.30;92.60
72646;DHT22;60687;53.876;10.674;2023-09-30T09:21:54;16.60;92.00
72646;DHT22;60687;53.876;10.674;2023-09-30T09:32:08;16.90;90.60
72646;DHT22;60687;53.876;10.674;2023-09-30T09:42:11;17.10;90.00
72646;DHT22;60687;53.876;10.674;2023-09-30T09:52:16;17.50;89.50
72646;DHT22;60687;53.876;10.674;2023-09-30T10:02:20;17.60;87.40
72646;DHT22;60687;53.876;10.674;2023-09-30T10:12:25;17.90;83.90
72646;DHT22;60687;53.876;10.674;2023-09-30T10:22:28;17.90;84.70
72646;DHT22;60687;53.876;10.674;2023-09-30T10:43:29;18.50;79.10
72646;DHT22;60687;53.876;10.674;2023-09-30T10:53:31;18.50;77.60
72646;DHT22;60687;53.876;10.674;2023-09-30T11:03:35;18.50;78.90
72646;DHT22;60687;53.876;10.674;2023-09-30T11:13:38;18.50;77.70
72646;DHT22;60687;53.876;10.674;2023-09-30T11:23:42;18.40;76.90
72646;DHT22;60687;53.876;10.674;2023-09-30T11:33:50;18.50;76.60
72646;DHT22;60687;53.876;10.674;2023-09-30T11:44:11;18.60;75.40
72646;DHT22;60687;53.876;10.674;2023-09-30T11:54:16;18.70;73.60
72646;DHT22;60687;53.876;10.674;2023-09-30T12:04:20;18.60;74.30
72646;DHT22;60687;53.876;10.674;2023-09-30T12:14:22;18.80;72.60
72646;DHT22;60687;53.876;10.674;2023-09-30T12:24:26;18.70;73.30
72646;DHT22;60687;53.876;10.674;2023-09-30T12:34:28;18.80;73.10
72646;DHT22;60687;53.876;10.674;2023-09-30T12:44:35;18.80;68.20
72646;DHT22;60687;53.876;10.674;2023-09-30T12:54:37;18.70;67.50
72646;DHT22;60687;53.876;10.674;2023-09-30T13:04:42;18.70;67.80
72646;DHT22;60687;53.876;10.674;2023-09-30T13:14:45;18.70;67.80
72646;DHT22;60687;53.876;10.674;2023-09-30T13:24:49;18.60;65.60
72646;DHT22;60687;53.876;10.674;2023-09-30T13:34:52;18.60;65.50
72646;DHT22;60687;53.876;10.674;2023-09-30T13:44:56;18.70;65.20
72646;DHT22;60687;53.876;10.674;2023-09-30T13:54:59;18.80;66.50
72646;DHT22;60687;53.876;10.674;2023-09-30T14:05:04;18.80;65.30
72646;DHT22;60687;53.876;10.674;2023-09-30T14:15:09;18.70;66.80
72646;DHT22;60687;53.876;10.674;2023-09-30T14:25:14;18.50;67.30
72646;DHT22;60687;53.876;10.674;2023-09-30T14:35:16;18.40;69.20
72646;DHT22;60687;53.876;10.674;2023-09-30T14:45:20;18.30;70.00
72646;DHT22;60687;53.876;10.674;2023-09-30T14:55:22;18.20;70.50
72646;DHT22;60687;53.876;10.674;2023-09-30T15:05:26;18.10;71.30
72646;DHT22;60687;53.876;10.674;2023-09-30T15:15:29;18.10;72.00
72646;DHT22;60687;53.876;10.674;2023-09-30T15:25:33;18.00;71.50
72646;DHT22;60687;53.876;10.674;2023-09-30T15:35:35;17.90;71.50
72646;DHT22;60687;53.876;10.674;2023-09-30T15:45:39;17.90;71.50
72646;DHT22;60687;53.876;10.674;2023-09-30T15:55:42;17.80;72.20
72646;DHT22;60687;53.876;10.674;2023-09-30T16:05:46;17.70;72.20
72646;DHT22;60687;53.876;10.674;2023-09-30T16:15:48;17.60;73.00
72646;DHT22;60687;53.876;10.674;2023-09-30T16:25:52;17.50;73.60
72646;DHT22;60687;53.876;10.674;2023-09-30T16:35:55;17.40;73.30
72646;DHT22;60687;53.876;10.674;2023-09-30T16:46:00;17.30;74.20
72646;DHT22;60687;53.876;10.674;2023-09-30T16:56:03;17.20;75.10
72646;DHT22;60687;53.876;10.674;2023-09-30T17:06:08;17.10;75.10
72646;DHT22;60687;53.876;10.674;2023-09-30T17:16:16;17.00;75.70
72646;DHT22;60687;53.876;10.674;2023-09-30T17:26:20;16.90;76.70
72646;DHT22;60687;53.876;10.674;2023-09-30T17:36:23;16.80;77.00
72646;DHT22;60687;53.876;10.674;2023-09-30T17:46:27;16.70;77.40
72646;DHT22;60687;53.876;10.674;2023-09-30T17:56:29;16.70;77.90
72646;DHT22;60687;53.876;10.674;2023-09-30T18:06:33;16.60;78.90
72646;DHT22;60687;53.876;10.674;2023-09-30T18:16:35;16.50;78.70
72646;DHT22;60687;53.876;10.674;2023-09-30T18:26:39;16.50;78.70
72646;DHT22;60687;53.876;10.674;2023-09-30T18:36:42;16.40;79.40
72646;DHT22;60687;53.876;10.674;2023-09-30T18:46:46;16.30;79.80
72646;DHT22;60687;53.876;10.674;2023-09-30T18:56:51;16.20;80.20
72646;DHT22;60687;53.876;10.674;2023-09-30T19:06:55;16.20;80.60
72646;DHT22;60687;53.876;10.674;2023-09-30T19:16:58;16.10;81.20
72646;DHT22;60687;53.876;10.674;2023-09-30T19:27:01;16.00;81.80
72646;DHT22;60687;53.876;10.674;2023-09-30T19:37:04;15.90;82.60
72646;DHT22;60687;53.876;10.674;2023-09-30T19:47:07;15.90;83.30
72646;DHT22;60687;53.876;10.674;2023-09-30T19:57:10;15.90;83.60
72646;DHT22;60687;53.876;10.674;2023-09-30T20:07:14;15.80;84.60
72646;DHT22;60687;53.876;10.674;2023-09-30T20:17:16;15.80;85.00
72646;DHT22;60687;53.876;10.674;2023-09-30T20:27:21;15.80;85.70
72646;DHT22;60687;53.876;10.674;2023-09-30T20:37:23;15.70;86.90
72646;DHT22;60687;53.876;10.674;2023-09-30T20:47:27;15.60;87.10
72646;DHT22;60687;53.876;10.674;2023-09-30T20:57:31;15.60;87.70
72646;DHT22;60687;53.876;10.674;2023-09-30T21:07:34;15.50;88.40
72646;DHT22;60687;53.876;10.674;2023-09-30T21:17:37;15.50;89.10
72646;DHT22;60687;53.876;10.674;2023-09-30T21:27:41;15.50;90.10
72646;DHT22;60687;53.876;10.674;2023-09-30T21:37:43;15.40;90.30
72646;DHT22;60687;53.876;10.674;2023-09-30T21:47:47;15.40;91.00
72646;DHT22;60687;53.876;10.674;2023-09-30T21:57:50;15.40;90.90
72646;DHT22;60687;53.876;10.674;2023-09-30T22:07:53;15.30;91.20
72646;DHT22;60687;53.876;10.674;2023-09-30T22:17:56;15.40;91.40
72646;DHT22;60687;53.876;10.674;2023-09-30T22:28:00;15.40;91.50
72646;DHT22;60687;53.876;10.674;2023-09-30T22:38:02;15.40;91.40
72646;DHT22;60687;53.876;10.674;2023-09-30T22:48:10;15.40;91.50
72646;DHT22;60687;53.876;10.674;2023-09-30T22:58:13;15.40;91.60
72646;DHT22;60687;53.876;10.674;2023-09-30T23:08:17;15.40;91.40
72646;DHT22;60687;53.876;10.674;2023-09-30T23:18:20;15.40;91.50
72646;DHT22;60687;53.876;10.674;2023-09-30T23:28:24;15.40;91.70
72646;DHT22;60687;53.876;10.674;2023-09-30T23:38:27;15.30;91.70
72646;DHT22;60687;53.876;10.674;2023-09-30T23:48:31;15.30;91.70
72646;DHT22;60687;53.876;10.674;2023-09-30T23:58:34;15.30;91.90
